Time;durP1;ratioP1;P1;durP2;ratioP2;P2;SDS_P1;SDS_P2;PMS_P1;PMS_P2;Temp;Humidity;BMP_temperature;BMP_pressure;BME280_temperature;BME280_humidity;BME280_pressure;Samples;Min_cycle;Max_cycle;Signal;HPM_P1;HPM_P2
2022/04/01 00:01:37;;;;;;;1.60;1.10;;;19.70;42.90;;;;;;6194847;28;20105;-68
2022/04/01 00:04:39;;;;;;;2.20;1.40;;;19.80;43.00;;;;;;6194700;28;20030;-68
2022/04/01 00:07:40;;;;;;;2.03;1.17;;;19.70;42.90;;;;;;6194819;28;20034;-68
2022/04/01 00:10:40;;;;;;;1.90;1.40;;;19.70;42.90;;;;;;6194554;28;20385;-68
2022/04/01 00:13:41;;;;;;;1.90;1.10;;;19.70;42.90;;;;;;6193979;28;20101;-68
2022/04/01 00:16:41;;;;;;;1.83;1.20;;;19.70;42.90;;;;;;6194596;28;20030;-68
2022/04/01 00:19:42;;;;;;;2.03;1.30;;;19.70;42.90;;;;;;6194430;28;20437;-68
2022/04/01 00:22:43;;;;;;;2.20;1.38;;;19.70;42.90;;;;;;6194427;28;20109;-68
2022/04/01 00:25:43;;;;;;;2.67;1.50;;;19.70;42.90;;;;;;6194082;28;20037;-68
2022/04/01 00:28:44;;;;;;;3.42;1.50;;;19.70;42.90;;;;;;6194263;28;20051;-68
2022/04/01 00:31:50;;;;;;;1.85;1.17;;;19.70;42.90;;;;;;6193682;28;20022;-68
2022/04/01 00:34:51;;;;;;;2.63;1.35;;;19.70;42.90;;;;;;6194187;28;20034;-68
2022/04/01 00:37:52;;;;;;;2.45;1.30;;;19.70;42.90;;;;;;6192811;28;20027;-68
2022/04/01 00:40:53;;;;;;;2.17;1.42;;;19.70;42.90;;;;;;6193856;28;20026;-68
2022/04/01 00:44:13;;;;;;;2.25;1.40;;;19.70;42.80;;;;;;6193846;28;20062;-68
2022/04/01 00:47:15;;;;;;;2.25;1.25;;;19.70;42.60;;;;;;6193847;28;20639;-68
2022/04/01 00:50:15;;;;;;;1.88;1.17;;;19.70;42.90;;;;;;6194233;28;20030;-68
2022/04/01 00:53:20;;;;;;;2.40;1.33;;;19.70;42.90;;;;;;6193609;28;20381;-68
2022/04/01 00:56:23;;;;;;;2.75;1.50;;;19.70;42.80;;;;;;6194546;28;20041;-68
2022/04/01 00:59:24;;;;;;;1.60;1.10;;;19.70;42.80;;;;;;6192988;28;20030;-68
2022/04/01 01:02:24;;;;;;;1.52;1.10;;;19.70;42.90;;;;;;6193357;28;20022;-68
2022/04/01 01:05:25;;;;;;;1.92;1.23;;;19.70;42.80;;;;;;6194229;28;20027;-68
2022/04/01 01:08:26;;;;;;;1.75;1.30;;;19.70;42.90;;;;;;6193543;28;20066;-68
2022/04/01 01:11:26;;;;;;;2.10;1.30;;;19.70;42.90;;;;;;6193656;28;20014;-68
2022/04/01 01:14:31;;;;;;;2.45;1.40;;;19.70;42.90;;;;;;6193399;28;20061;-68
2022/04/01 01:17:31;;;;;;;2.03;1.27;;;19.70;42.90;;;;;;6193696;28;20085;-68
2022/04/01 01:20:32;;;;;;;1.77;1.20;;;19.70;42.90;;;;;;6193773;28;20042;-68
2022/04/01 01:23:33;;;;;;;1.45;1.00;;;19.70;42.90;;;;;;6193427;28;20377;-68
2022/04/01 01:26:35;;;;;;;1.92;1.25;;;19.70;42.90;;;;;;6193116;28;20061;-68
2022/04/01 01:29:39;;;;;;;2.15;1.42;;;19.70;42.90;;;;;;6193124;28;20060;-68
2022/04/01 01:32:39;;;;;;;1.88;1.27;;;19.70;42.90;;;;;;6193614;28;20030;-68
2022/04/01 01:35:40;;;;;;;1.48;1.08;;;19.70;42.90;;;;;;6193625;28;20038;-68
2022/04/01 01:38:41;;;;;;;1.30;1.05;;;19.70;42.90;;;;;;6193127;28;20030;-69
2022/04/01 01:41:46;;;;;;;2.45;1.30;;;19.70;42.90;;;;;;6193717;28;20026;-69
2022/04/01 01:44:46;;;;;;;1.80;1.00;;;19.70;42.90;;;;;;6193131;28;20029;-68
2022/04/01 01:47:47;;;;;;;1.45;1.20;;;19.70;42.90;;;;;;6193650;28;20419;-67
2022/04/01 01:57:29;;;;;;;2.25;1.30;;;19.70;42.90;;;;;;6193140;28;20031;-68
2022/04/01 02:00:29;;;;;;;1.80;1.30;;;19.70;42.90;;;;;;6193031;28;20462;-68
2022/04/01 02:03:30;;;;;;;1.88;1.20;;;19.70;42.90;;;;;;6193528;28;20026;-68
2022/04/01 02:06:30;;;;;;;2.08;1.02;;;19.70;42.90;;;;;;6198423;28;20509;-68
2022/04/01 02:09:31;;;;;;;1.48;1.00;;;19.70;42.90;;;;;;6197784;28;20038;-68
2022/04/01 02:12:31;;;;;;;1.13;0.88;;;19.70;42.90;;;;;;6197282;28;20390;-68
2022/04/01 02:15:32;;;;;;;2.35;1.13;;;19.70;42.90;;;;;;6196500;28;20555;-68
2022/04/01 02:18:33;;;;;;;1.23;0.90;;;19.70;42.90;;;;;;6197472;28;20033;-68
2022/04/01 02:21:33;;;;;;;2.70;1.50;;;19.70;43.00;;;;;;6197089;28;20505;-68
2022/04/01 02:24:36;;;;;;;2.38;1.20;;;19.70;42.90;;;;;;6196889;28;20047;-69
2022/04/01 02:27:38;;;;;;;2.08;1.25;;;19.70;42.90;;;;;;6196918;28;20054;-68
2022/04/01 02:30:39;;;;;;;3.15;1.10;;;19.70;42.90;;;;;;6196752;28;20042;-68
2022/04/01 02:33:42;;;;;;;1.33;1.10;;;19.70;42.90;;;;;;6196596;28;20030;-68
2022/04/01 02:36:43;;;;;;;1.50;1.10;;;19.70;42.90;;;;;;6196831;28;20486;-68
2022/04/01 02:39:43;;;;;;;2.55;1.17;;;19.70;43.00;;;;;;6196436;28;20034;-68
2022/04/01 02:42:44;;;;;;;1.60;1.10;;;19.70;42.90;;;;;;6196515;28;20031;-68
2022/04/01 02:45:45;;;;;;;1.45;1.10;;;19.70;42.80;;;;;;6196442;28;20031;-68
2022/04/01 02:48:46;;;;;;;1.75;1.20;;;19.70;42.90;;;;;;6196701;28;20048;-68
2022/04/01 02:51:47;;;;;;;1.58;1.30;;;19.70;42.80;;;;;;6196254;28;20482;-68
2022/04/01 02:54:47;;;;;;;4.38;1.10;;;19.70;42.90;;;;;;6196368;28;20037;-68
2022/04/01 02:57:48;;;;;;;1.17;1.02;;;19.70;42.90;;;;;;6196240;28;20030;-67
2022/04/01 03:00:48;;;;;;;1.30;0.90;;;19.70;42.90;;;;;;6196346;28;20033;-68
2022/04/01 03:03:49;;;;;;;1.88;1.10;;;19.70;42.90;;;;;;6195902;28;20046;-68
2022/04/01 03:06:49;;;;;;;2.05;1.10;;;19.70;42.80;;;;;;6196316;28;20039;-68
2022/04/01 03:09:50;;;;;;;1.52;1.10;;;19.70;42.90;;;;;;6196272;28;20477;-68
2022/04/01 03:12:51;;;;;;;1.48;1.02;;;19.70;42.90;;;;;;6195860;28;20105;-68
2022/04/01 03:15:51;;;;;;;1.17;1.00;;;19.70;42.60;;;;;;6196049;28;20031;-68
2022/04/01 03:18:57;;;;;;;1.73;0.90;;;19.70;42.90;;;;;;6195911;28;20030;-68
2022/04/01 03:21:57;;;;;;;1.75;1.00;;;19.70;42.90;;;;;;6195661;28;20488;-68
2022/04/01 03:24:58;;;;;;;1.88;1.10;;;19.70;42.90;;;;;;6195427;28;20049;-68
2022/04/01 03:28:00;;;;;;;2.30;1.38;;;19.70;42.80;;;;;;6195486;28;20046;-68
2022/04/01 03:31:06;;;;;;;1.42;1.10;;;19.70;42.80;;;;;;6195517;28;20026;-68
2022/04/01 03:34:07;;;;;;;2.17;1.20;;;19.70;42.90;;;;;;6195538;28;20440;-68
2022/04/01 03:37:08;;;;;;;1.63;0.98;;;19.70;42.90;;;;;;6195287;28;20031;-68
2022/04/01 03:40:10;;;;;;;1.95;1.00;;;19.70;42.90;;;;;;6195149;28;20555;-68
2022/04/01 03:43:10;;;;;;;1.30;1.10;;;19.70;42.90;;;;;;6195440;28;20015;-68
2022/04/01 03:46:13;;;;;;;1.45;1.02;;;19.70;42.90;;;;;;6195316;28;20037;-68
2022/04/01 03:49:20;;;;;;;1.75;1.10;;;19.70;42.80;;;;;;6195315;28;20038;-68
2022/04/01 03:52:22;;;;;;;1.70;1.10;;;19.70;42.90;;;;;;6194960;28;20378;-68
2022/04/01 03:55:24;;;;;;;1.25;0.95;;;19.70;42.90;;;;;;6195306;28;20308;-68
2022/04/01 03:58:31;;;;;;;1.70;1.30;;;19.70;42.80;;;;;;6194768;28;20026;-68
2022/04/01 04:01:32;;;;;;;1.88;1.08;;;19.70;42.80;;;;;;6194702;28;20438;-69
2022/04/01 04:04:36;;;;;;;1.40;0.90;;;19.70;42.80;;;;;;6194671;28;20052;-68
2022/04/01 04:07:39;;;;;;;1.80;1.23;;;19.70;42.80;;;;;;6225873;28;20027;-68
2022/04/01 04:10:40;;;;;;;1.60;0.90;;;19.70;42.80;;;;;;6195056;28;20568;-69
2022/04/01 04:13:44;;;;;;;1.55;1.15;;;19.70;42.90;;;;;;6194589;28;20096;-68
2022/04/01 04:16:46;;;;;;;3.45;1.20;;;19.70;42.80;;;;;;6194323;28;20026;-68
2022/04/01 04:19:54;;;;;;;1.52;1.13;;;19.70;42.80;;;;;;6194377;28;20469;-68
2022/04/01 04:23:06;;;;;;;2.10;1.20;;;19.70;42.70;;;;;;6194031;28;20113;-68
2022/04/01 04:26:11;;;;;;;1.52;0.95;;;19.70;42.70;;;;;;6193879;28;20034;-68
2022/04/01 04:29:15;;;;;;;2.67;1.15;;;19.70;42.70;;;;;;6193987;28;20053;-68
2022/04/01 04:32:34;;;;;;;5.35;1.25;;;19.70;42.70;;;;;;6193980;28;20109;-68
2022/04/01 04:35:40;;;;;;;2.00;1.10;;;19.70;42.60;;;;;;6191852;28;20034;-68
2022/04/01 04:38:43;;;;;;;1.73;1.00;;;19.70;42.70;;;;;;6194022;28;20019;-68
2022/04/01 04:41:44;;;;;;;1.25;0.82;;;19.70;42.70;;;;;;6194792;28;20527;-69
2022/04/01 04:44:45;;;;;;;2.10;1.20;;;19.70;42.70;;;;;;6194533;28;20053;-68
2022/04/01 04:47:47;;;;;;;2.08;1.20;;;19.70;42.70;;;;;;6194378;28;20493;-68
2022/04/01 04:50:48;;;;;;;1.98;1.20;;;19.70;42.60;;;;;;6193933;28;20232;-68
2022/04/01 04:53:50;;;;;;;2.20;1.17;;;19.70;42.60;;;;;;6193519;28;20026;-68
2022/04/01 04:56:52;;;;;;;1.23;1.05;;;19.70;42.60;;;;;;6193658;28;20664;-68
2022/04/01 05:00:36;;;;;;;2.25;1.40;;;19.70;42.70;;;;;;6193911;28;20023;-68
2022/04/01 05:04:16;;;;;;;1.60;1.20;;;19.70;42.60;;;;;;6171497;28;20037;-68
2022/04/01 05:07:47;;;;;;;1.42;0.95;;;19.70;43.30;;;;;;6163529;28;20930;-68
2022/04/01 05:11:24;;;;;;;2.10;1.13;;;19.70;42.60;;;;;;6189039;28;20156;-68
2022/04/01 05:14:52;;;;;;;2.70;1.10;;;19.70;42.50;;;;;;6190526;28;20026;-68
2022/04/01 05:18:02;;;;;;;1.65;1.10;;;19.70;42.60;;;;;;6192207;28;20121;-68
2022/04/01 05:21:04;;;;;;;1.70;1.00;;;19.70;42.50;;;;;;6191079;28;20026;-68
2022/04/01 05:24:07;;;;;;;2.15;1.25;;;19.70;42.50;;;;;;6190049;28;20034;-68
2022/04/01 05:27:23;;;;;;;9.05;1.30;;;19.70;42.50;;;;;;6189719;28;20050;-68
2022/04/01 05:30:28;;;;;;;;;;;19.70;42.40;;;;;;6192674;28;20224;-68
2022/04/01 05:33:51;;;;;;;3.20;1.10;;;19.70;42.40;;;;;;6192452;28;19972;-67
2022/04/01 05:36:54;;;;;;;3.22;1.27;;;19.70;42.40;;;;;;6190529;28;20116;-68
2022/04/01 05:39:55;;;;;;;2.33;1.08;;;19.70;42.20;;;;;;6197871;28;20062;-67
2022/04/01 05:42:57;;;;;;;2.40;1.30;;;19.70;42.10;;;;;;6201774;28;20033;-67
2022/04/01 05:45:58;;;;;;;1.65;1.25;;;19.80;42.10;;;;;;6197064;28;20318;-67
2022/04/01 05:49:00;;;;;;;2.55;1.55;;;19.80;42.00;;;;;;6173226;28;20130;-68
2022/04/01 05:52:02;;;;;;;2.97;1.38;;;19.80;42.00;;;;;;6195105;28;20442;-67
2022/04/01 05:55:03;;;;;;;3.63;1.30;;;19.80;42.40;;;;;;6196900;28;20505;-68
2022/04/01 05:58:05;;;;;;;5.15;1.50;;;19.90;42.30;;;;;;6196005;28;20098;-68
2022/04/01 06:01:21;;;;;;;2.65;1.33;;;19.90;41.90;;;;;;6189803;28;20038;-68
2022/04/01 06:04:35;;;;;;;;;;;19.90;41.80;;;;;;6197499;28;20034;-68
2022/04/01 06:07:58;;;;;;;3.15;1.40;;;19.90;41.70;;;;;;6198394;28;19928;-68
2022/04/01 06:11:05;;;;;;;2.40;1.27;;;20.00;41.70;;;;;;6199575;28;20042;-68
2022/04/01 06:14:23;;;;;;;1.85;1.35;;;20.00;41.70;;;;;;6200664;28;20057;-68
2022/04/01 06:17:37;;;;;;;3.97;1.30;;;20.00;41.80;;;;;;6223057;28;20037;-67
2022/04/01 06:20:40;;;;;;;2.85;1.48;;;20.00;42.00;;;;;;6202133;28;20026;-67
2022/04/01 06:24:05;;;;;;;4.00;1.40;;;20.00;42.00;;;;;;6198807;28;20235;-68
2022/04/01 06:27:11;;;;;;;2.63;1.40;;;20.00;42.10;;;;;;6198448;28;20089;-68
2022/04/01 06:30:17;;;;;;;1.83;1.35;;;20.00;42.10;;;;;;6198323;28;20038;-68
2022/04/01 06:34:02;;;;;;;2.28;1.20;;;20.00;42.20;;;;;;6198565;28;20027;-67
2022/04/01 06:37:04;;;;;;;1.60;1.00;;;19.90;42.10;;;;;;6192419;28;20027;-68
2022/04/01 06:40:10;;;;;;;3.83;1.33;;;19.90;42.10;;;;;;6197905;28;20053;-68
2022/04/01 06:43:11;;;;;;;3.25;1.40;;;19.90;42.10;;;;;;6198246;28;20184;-68
2022/04/01 06:46:11;;;;;;;3.42;1.50;;;19.90;42.00;;;;;;6198722;28;20026;-68
2022/04/01 06:49:12;;;;;;;2.55;1.40;;;19.90;42.00;;;;;;6195233;28;20043;-68
2022/04/01 06:52:12;;;;;;;2.67;1.30;;;19.90;42.10;;;;;;6189724;28;20077;-68
2022/04/01 06:55:14;;;;;;;4.97;1.50;;;19.90;42.10;;;;;;6196402;28;20031;-67
2022/04/01 06:58:15;;;;;;;7.00;1.35;;;20.00;42.00;;;;;;6197399;28;20018;-68
2022/04/01 07:01:16;;;;;;;3.95;1.40;;;20.10;42.30;;;;;;6183513;28;20547;-68
2022/04/01 07:04:17;;;;;;;8.63;1.42;;;20.10;42.50;;;;;;6196702;28;20026;-68
2022/04/01 07:07:17;;;;;;;3.83;1.17;;;20.10;42.20;;;;;;6196586;28;20033;-68
2022/04/01 07:10:18;;;;;;;1.90;1.10;;;20.10;41.90;;;;;;6204951;28;20038;-68
2022/04/01 07:13:19;;;;;;;1.70;1.15;;;20.10;41.80;;;;;;6212846;28;20040;-68
2022/04/01 07:16:19;;;;;;;1.98;1.30;;;20.10;41.70;;;;;;6199549;28;20096;-68
2022/04/01 07:19:20;;;;;;;2.75;1.30;;;20.10;41.60;;;;;;6197202;28;20018;-68
2022/04/01 07:22:20;;;;;;;2.60;1.30;;;20.20;41.70;;;;;;6197310;28;20042;-68
2022/04/01 07:25:22;;;;;;;3.38;0.93;;;20.20;41.60;;;;;;6195525;28;20026;-68
2022/04/01 07:28:23;;;;;;;1.85;1.13;;;20.20;41.50;;;;;;6196882;28;20058;-69
2022/04/01 07:34:44;;;;;;;4.55;1.55;;;20.20;41.40;;;;;;6196831;28;20038;-68
2022/04/01 07:37:46;;;;;;;3.55;1.10;;;20.20;41.40;;;;;;6196811;28;20393;-68
2022/04/01 07:40:46;;;;;;;2.03;1.20;;;20.20;41.40;;;;;;6197076;28;20034;-68
2022/04/01 07:43:47;;;;;;;2.50;1.10;;;20.20;41.40;;;;;;6196564;28;20092;-68
2022/04/01 07:46:48;;;;;;;2.28;1.30;;;20.30;42.10;;;;;;6196949;28;20026;-67
2022/04/01 07:49:51;;;;;;;1.75;1.17;;;20.40;41.40;;;;;;6196404;28;20038;-68
2022/04/01 07:52:51;;;;;;;2.08;1.10;;;20.50;41.30;;;;;;6197359;28;20038;-68
2022/04/01 07:55:52;;;;;;;6.32;1.60;;;20.50;41.20;;;;;;6196205;28;20034;-68
2022/04/01 07:58:52;;;;;;;2.20;1.13;;;20.50;41.40;;;;;;6196680;28;20397;-68
2022/04/01 08:01:53;;;;;;;1.70;1.02;;;20.50;41.40;;;;;;6195456;28;20080;-69
2022/04/01 08:04:53;;;;;;;2.45;1.25;;;20.40;41.30;;;;;;6195898;28;20291;-69
2022/04/01 08:07:54;;;;;;;2.35;1.25;;;20.40;41.20;;;;;;6196167;28;20049;-68
2022/04/01 08:10:54;;;;;;;2.60;1.10;;;20.40;41.30;;;;;;6194974;28;20061;-68
2022/04/01 08:13:55;;;;;;;2.30;1.30;;;20.30;41.40;;;;;;6195366;28;20029;-68
2022/04/01 08:16:56;;;;;;;3.67;1.20;;;20.30;41.40;;;;;;6195962;28;20085;-68
2022/04/01 08:19:56;;;;;;;2.58;1.30;;;20.20;41.30;;;;;;6192854;28;20026;-68
2022/04/01 08:22:57;;;;;;;2.33;1.30;;;20.20;41.40;;;;;;6195923;28;20105;-68
2022/04/01 08:25:57;;;;;;;3.38;1.55;;;20.20;41.40;;;;;;6195705;28;20077;-68
2022/04/01 08:28:58;;;;;;;2.50;1.23;;;20.20;41.50;;;;;;6196352;28;20057;-68
2022/04/01 08:31:59;;;;;;;4.68;1.55;;;20.20;41.50;;;;;;6195101;28;20209;-68
2022/04/01 08:35:00;;;;;;;2.67;1.00;;;20.20;41.40;;;;;;6192440;28;20046;-68
2022/04/01 08:38:01;;;;;;;1.70;1.13;;;20.10;41.60;;;;;;6195361;28;20046;-68
2022/04/01 08:41:02;;;;;;;1.98;1.25;;;20.10;41.60;;;;;;6195658;28;20065;-68
2022/04/01 08:44:03;;;;;;;2.42;0.93;;;20.10;41.70;;;;;;6195410;28;20458;-68
2022/04/01 08:47:04;;;;;;;3.30;1.63;;;20.10;41.80;;;;;;6195705;28;20428;-68
2022/04/01 08:50:07;;;;;;;6.38;1.50;;;20.00;40.60;;;;;;6195532;28;20073;-68
2022/04/01 08:53:08;;;;;;;5.93;1.23;;;20.00;40.40;;;;;;6195556;28;20031;-68
2022/04/01 08:56:09;;;;;;;2.88;1.60;;;20.00;39.80;;;;;;6227081;28;20026;-69
2022/04/01 08:59:09;;;;;;;8.45;1.73;;;19.90;39.00;;;;;;6193980;28;20023;-68
2022/04/01 09:02:11;;;;;;;6.70;1.65;;;19.90;38.00;;;;;;6195175;28;20444;-69
2022/04/01 09:05:11;;;;;;;5.45;1.45;;;19.90;37.60;;;;;;6193795;28;20022;-68
2022/04/01 09:08:16;;;;;;;7.88;2.00;;;19.90;38.10;;;;;;6189905;28;20030;-68
2022/04/01 09:11:18;;;;;;;3.97;2.05;;;19.90;37.10;;;;;;6215601;28;20041;-68
2022/04/01 09:14:22;;;;;;;5.07;1.77;;;19.90;36.00;;;;;;6216569;28;20026;-68
2022/04/01 09:17:43;;;;;;;10.07;2.00;;;19.90;35.20;;;;;;6206059;28;20158;-68
2022/04/01 09:20:45;;;;;;;5.72;1.55;;;19.90;34.90;;;;;;6199898;28;20030;-68
2022/04/01 09:23:48;;;;;;;4.57;1.58;;;19.90;35.20;;;;;;6201744;28;20037;-69
2022/04/01 09:26:55;;;;;;;4.68;1.83;;;19.90;35.10;;;;;;6196387;28;20109;-67
2022/04/01 09:29:56;;;;;;;2.70;1.10;;;19.90;35.10;;;;;;6199215;28;20474;-68
2022/04/01 09:33:01;;;;;;;3.35;1.45;;;19.90;35.20;;;;;;6199830;28;20034;-68
2022/04/01 09:36:04;;;;;;;2.65;1.40;;;19.90;35.70;;;;;;6199754;28;20033;-68
2022/04/01 09:39:06;;;;;;;3.25;1.35;;;19.90;36.10;;;;;;6199431;28;20062;-68
2022/04/01 09:42:10;;;;;;;3.97;1.35;;;19.90;36.50;;;;;;6200323;28;20030;-68
2022/04/01 09:45:21;;;;;;;2.70;1.50;;;19.90;36.80;;;;;;6199507;28;20022;-68
2022/04/01 09:48:22;;;;;;;3.60;1.50;;;19.90;36.90;;;;;;6199282;28;20035;-68
2022/04/01 09:51:23;;;;;;;2.55;1.40;;;19.90;37.20;;;;;;6199780;28;20089;-68
2022/04/01 09:54:24;;;;;;;2.47;1.10;;;19.90;37.20;;;;;;6199369;28;20061;-68
2022/04/01 09:57:25;;;;;;;3.50;1.80;;;19.90;37.30;;;;;;6199411;28;20033;-68
2022/04/01 10:00:26;;;;;;;1.40;1.05;;;19.90;37.50;;;;;;6199138;28;20038;-67
2022/04/01 10:03:26;;;;;;;2.80;1.33;;;19.90;37.60;;;;;;6199090;28;20061;-68
2022/04/01 10:06:29;;;;;;;3.67;1.33;;;19.90;37.50;;;;;;6199117;28;20034;-68
2022/04/01 10:09:31;;;;;;;2.47;1.40;;;19.90;37.70;;;;;;6206536;28;20370;-68
2022/04/01 10:12:38;;;;;;;5.07;1.63;;;19.90;37.80;;;;;;6222631;28;20030;-68
2022/04/01 10:15:42;;;;;;;2.70;1.50;;;19.90;37.80;;;;;;6207306;28;20022;-68
2022/04/01 10:18:47;;;;;;;1.70;1.03;;;19.90;38.00;;;;;;6198733;28;20029;-68
2022/04/01 10:21:47;;;;;;;4.25;1.30;;;19.90;38.80;;;;;;6198770;28;20435;-69
2022/04/01 10:24:59;;;;;;;2.65;1.20;;;19.90;38.00;;;;;;6198896;28;20076;-68
2022/04/01 10:28:04;;;;;;;2.40;1.17;;;19.90;38.00;;;;;;6209886;28;20053;-69
2022/04/01 10:31:11;;;;;;;;;;;19.90;38.30;;;;;;6202947;28;20083;-66
2022/04/01 10:34:25;;;;;;;3.38;1.33;;;20.00;38.20;;;;;;6198098;28;19968;-68
2022/04/01 10:37:30;;;;;;;3.90;1.25;;;20.10;38.20;;;;;;6197888;28;20038;-68
2022/04/01 10:40:32;;;;;;;1.92;1.08;;;20.20;38.50;;;;;;6198163;28;20026;-68
2022/04/01 10:43:38;;;;;;;2.95;1.23;;;20.20;38.80;;;;;;6187550;28;20054;-68
2022/04/01 10:46:57;;;;;;;4.88;1.25;;;20.20;39.30;;;;;;6197233;28;20031;-67
2022/04/01 10:53:48;;;;;;;3.60;1.75;;;20.20;40.70;;;;;;6198154;28;20117;-67
2022/04/01 10:57:05;;;;;;;7.75;1.55;;;20.30;40.70;;;;;;6197731;28;20042;-67
2022/04/01 11:00:12;;;;;;;4.43;1.73;;;20.30;40.40;;;;;;6197236;28;20030;-68
2022/04/01 11:03:24;;;;;;;3.65;1.35;;;20.30;40.40;;;;;;6197025;28;20521;-67
2022/04/01 11:06:27;;;;;;;2.38;1.25;;;20.30;40.30;;;;;;6197359;28;20026;-68
2022/04/01 11:09:45;;;;;;;4.13;1.52;;;20.30;40.20;;;;;;6214692;28;20041;-68
2022/04/01 11:12:52;;;;;;;5.32;1.40;;;20.30;40.10;;;;;;6221345;28;20473;-67
2022/04/01 11:16:11;;;;;;;2.95;1.52;;;20.30;40.10;;;;;;6221372;28;20374;-68
2022/04/01 11:19:17;;;;;;;3.70;1.38;;;20.30;40.10;;;;;;6221401;28;20557;-68
2022/04/01 11:22:34;;;;;;;2.15;1.10;;;20.30;40.10;;;;;;6221998;28;20048;-68
2022/04/01 11:25:35;;;;;;;2.92;1.08;;;20.20;40.00;;;;;;6205640;28;20428;-68
2022/04/01 11:28:38;;;;;;;1.80;1.00;;;20.20;40.00;;;;;;6196847;28;20047;-68
2022/04/01 11:31:41;;;;;;;3.75;1.30;;;20.20;39.90;;;;;;6196753;28;20122;-68
2022/04/01 11:34:56;;;;;;;4.50;1.30;;;20.20;39.90;;;;;;6196430;28;20034;-67
2022/04/01 11:37:58;;;;;;;1.65;0.95;;;20.20;39.90;;;;;;6187270;28;20026;-68
2022/04/01 11:41:01;;;;;;;1.58;1.10;;;20.20;40.00;;;;;;6196820;28;20034;-68
2022/04/01 11:44:06;;;;;;;1.92;1.02;;;20.20;39.80;;;;;;6196639;28;20038;-68
2022/04/01 11:47:07;;;;;;;1.80;0.95;;;20.20;39.70;;;;;;6196732;28;20026;-68
2022/04/01 11:50:10;;;;;;;1.95;1.20;;;20.20;39.80;;;;;;6196788;28;20046;-68
2022/04/01 11:53:30;;;;;;;1.83;1.17;;;20.20;39.80;;;;;;6196397;28;20113;-68
2022/04/01 11:56:30;;;;;;;2.42;1.23;;;20.20;39.80;;;;;;6196240;28;20096;-68
2022/04/01 11:59:32;;;;;;;3.22;1.10;;;20.20;39.80;;;;;;6194187;28;20039;-68
2022/04/01 12:02:35;;;;;;;2.20;1.10;;;20.20;39.70;;;;;;6196367;28;20450;-68
2022/04/01 12:05:36;;;;;;;0.93;0.80;;;20.20;39.80;;;;;;6198302;28;20037;-68
2022/04/01 12:08:41;;;;;;;1.73;1.05;;;20.20;39.80;;;;;;6194702;28;20421;-68
2022/04/01 12:11:45;;;;;;;2.63;1.00;;;20.20;40.00;;;;;;6194446;28;20069;-68
2022/04/01 12:14:46;;;;;;;2.80;1.13;;;20.20;39.90;;;;;;6214147;28;20317;-68
2022/04/01 12:17:48;;;;;;;5.20;1.08;;;20.20;39.90;;;;;;6219529;28;20030;-67
2022/04/01 12:20:51;;;;;;;3.00;1.25;;;20.20;39.80;;;;;;6209002;28;20045;-68
2022/04/01 12:23:52;;;;;;;2.25;1.23;;;20.20;40.50;;;;;;6194339;28;20041;-68
2022/04/01 12:26:53;;;;;;;2.78;1.25;;;20.20;40.00;;;;;;6194116;28;20494;-68
2022/04/01 12:29:53;;;;;;;1.92;1.00;;;20.20;39.90;;;;;;6195046;28;20030;-69
2022/04/01 12:32:55;;;;;;;1.75;1.30;;;20.20;39.90;;;;;;6194890;28;20042;-67
2022/04/01 12:36:07;;;;;;;2.38;1.05;;;20.40;39.80;;;;;;6195632;28;20019;-67
2022/04/01 12:39:10;;;;;;;7.28;1.65;;;20.50;39.80;;;;;;6194814;28;20482;-68
2022/04/01 12:42:14;;;;;;;2.50;1.20;;;20.50;39.60;;;;;;6195175;28;20030;-68
2022/04/01 12:45:14;;;;;;;4.85;0.93;;;20.50;40.30;;;;;;6200794;28;20034;-68
2022/04/01 12:48:22;;;;;;;3.40;1.40;;;20.60;39.40;;;;;;6186629;28;20073;-68
2022/04/01 12:51:30;;;;;;;1.70;1.20;;;20.60;39.90;;;;;;6194840;28;20304;-67
2022/04/01 12:54:39;;;;;;;2.72;1.15;;;20.50;39.90;;;;;;6194117;28;20457;-67
2022/04/01 12:57:51;;;;;;;2.78;1.02;;;20.50;39.60;;;;;;6195048;28;20109;-68
2022/04/01 13:00:51;;;;;;;1.98;1.30;;;20.40;39.10;;;;;;6194657;28;20080;-68
2022/04/01 13:03:53;;;;;;;8.30;1.27;;;20.40;39.20;;;;;;6193634;28;20031;-68
2022/04/01 13:07:10;;;;;;;2.40;1.30;;;20.40;39.30;;;;;;6195014;28;20123;-67
2022/04/01 13:10:11;;;;;;;3.72;1.50;;;20.40;39.20;;;;;;6202030;28;20386;-68
2022/04/01 13:13:17;;;;;;;1.98;1.40;;;20.40;39.40;;;;;;6194901;28;20033;-67
2022/04/01 13:16:17;;;;;;;2.38;1.10;;;20.40;39.50;;;;;;6186130;28;20120;-69
2022/04/01 13:19:40;;;;;;;3.33;1.00;;;20.40;38.90;;;;;;6194794;28;20037;-68
2022/04/01 13:22:43;;;;;;;4.68;1.10;;;20.50;38.80;;;;;;6169915;28;20034;-69
2022/04/01 13:25:44;;;;;;;5.22;0.95;;;20.60;38.70;;;;;;6192354;28;20402;-68
2022/04/01 13:28:44;;;;;;;1.73;1.00;;;20.60;38.80;;;;;;6193963;28;20047;-68
2022/04/01 13:31:46;;;;;;;4.60;1.17;;;20.60;38.90;;;;;;6192251;28;20034;-68
2022/04/01 13:34:46;;;;;;;2.58;1.30;;;20.60;39.20;;;;;;6184253;28;20023;-67
2022/04/01 13:37:47;;;;;;;1.38;0.98;;;20.50;39.00;;;;;;6194032;28;20039;-68
2022/04/01 13:40:48;;;;;;;4.53;1.30;;;20.50;39.10;;;;;;6194448;28;20585;-67
2022/04/01 13:43:49;;;;;;;3.75;1.30;;;20.50;39.20;;;;;;6193861;28;20482;-68
2022/04/01 13:46:51;;;;;;;2.97;1.13;;;20.40;39.20;;;;;;6217942;28;20477;-68
2022/04/01 13:49:52;;;;;;;4.10;1.00;;;20.40;39.20;;;;;;6218036;28;20527;-68
2022/04/01 13:52:52;;;;;;;5.57;1.20;;;20.40;39.10;;;;;;6218313;28;20033;-68
2022/04/01 13:55:53;;;;;;;4.70;1.27;;;20.40;39.30;;;;;;6218747;28;20026;-68
2022/04/01 13:58:54;;;;;;;7.57;1.05;;;20.40;39.50;;;;;;6219763;28;20030;-68
2022/04/01 14:01:55;;;;;;;2.20;0.95;;;20.40;39.40;;;;;;6196153;28;20054;-68
2022/04/01 14:04:55;;;;;;;3.13;1.25;;;20.40;39.50;;;;;;6196607;28;20034;-68
2022/04/01 14:07:56;;;;;;;2.00;1.00;;;20.30;39.50;;;;;;6196945;28;20362;-68
2022/04/01 14:10:56;;;;;;;1.95;1.10;;;20.30;39.50;;;;;;6204673;28;20062;-68
2022/04/01 14:13:57;;;;;;;1.75;1.10;;;20.30;39.60;;;;;;6208530;28;20039;-68
2022/04/01 14:16:57;;;;;;;1.50;1.02;;;20.30;39.70;;;;;;6222258;28;20102;-68
2022/04/01 14:19:59;;;;;;;1.55;1.00;;;20.30;39.80;;;;;;6218319;28;20077;-68
2022/04/01 14:22:59;;;;;;;3.50;1.40;;;20.30;39.80;;;;;;6197521;28;20442;-68
2022/04/01 14:26:04;;;;;;;1.45;1.05;;;20.30;39.80;;;;;;6198148;28;20022;-68
2022/04/01 14:32:24;;;;;;;3.67;1.00;;;20.30;39.90;;;;;;6197447;28;20489;-68
2022/04/01 14:35:25;;;;;;;3.90;1.20;;;20.30;39.90;;;;;;6197814;28;20073;-69
2022/04/01 14:38:25;;;;;;;5.63;1.52;;;20.30;40.00;;;;;;6197743;28;20017;-69
2022/04/01 14:41:26;;;;;;;2.78;1.10;;;20.30;40.30;;;;;;6197530;28;20096;-68
2022/04/01 14:44:27;;;;;;;2.60;1.08;;;20.30;40.10;;;;;;6195973;28;20397;-68
2022/04/01 14:47:28;;;;;;;1.88;1.20;;;20.30;40.00;;;;;;6195928;28;20109;-68
2022/04/01 14:50:29;;;;;;;6.95;1.30;;;20.30;40.00;;;;;;6203324;28;20040;-69
2022/04/01 14:53:29;;;;;;;2.85;1.08;;;20.30;40.10;;;;;;6196477;28;20034;-69
2022/04/01 14:56:30;;;;;;;6.00;1.50;;;20.30;39.70;;;;;;6197757;28;20041;-69
2022/04/01 14:59:31;;;;;;;6.75;1.70;;;20.20;36.30;;;;;;6196771;28;20393;-69
2022/04/01 15:02:35;;;;;;;5.32;1.50;;;20.20;34.60;;;;;;6195991;28;20041;-69
2022/04/01 15:05:35;;;;;;;12.02;1.80;;;20.20;35.30;;;;;;6213907;28;20117;-68
2022/04/01 15:08:36;;;;;;;13.18;2.08;;;20.20;33.90;;;;;;6220760;28;20044;-68
2022/04/01 15:11:36;;;;;;;7.30;1.95;;;20.20;32.90;;;;;;6220155;28;20405;-68
2022/04/01 15:14:38;;;;;;;6.82;1.60;;;20.20;32.70;;;;;;6220211;28;20067;-69
2022/04/01 15:17:43;;;;;;;7.18;1.80;;;20.10;33.40;;;;;;6220797;28;20032;-68
2022/04/01 15:20:44;;;;;;;4.00;1.70;;;20.20;33.10;;;;;;6209453;28;20027;-68
2022/04/01 15:23:45;;;;;;;8.57;1.80;;;20.10;33.50;;;;;;6195234;28;20038;-68
2022/04/01 15:26:45;;;;;;;3.65;1.40;;;20.10;34.20;;;;;;6195404;28;20057;-69
2022/04/01 15:29:46;;;;;;;12.05;2.22;;;20.20;34.60;;;;;;6196048;28;20041;-69
2022/04/01 15:32:46;;;;;;;7.03;1.95;;;20.10;34.80;;;;;;6209938;28;20105;-69
2022/04/01 15:35:51;;;;;;;6.38;1.70;;;20.10;35.00;;;;;;6220657;28;20026;-68
2022/04/01 15:38:53;;;;;;;4.43;1.50;;;20.10;34.80;;;;;;6220369;28;20520;-68
2022/04/01 15:41:54;;;;;;;4.65;1.70;;;20.10;34.80;;;;;;6220382;28;20109;-69
2022/04/01 15:44:56;;;;;;;4.15;1.70;;;20.10;35.10;;;;;;6206049;28;20036;-69
2022/04/01 15:47:58;;;;;;;5.20;1.67;;;20.10;35.40;;;;;;6220209;28;20033;-68
2022/04/01 15:51:01;;;;;;;6.00;1.55;;;20.10;35.80;;;;;;6195980;28;20117;-68
2022/04/01 15:54:01;;;;;;;4.82;1.67;;;20.10;35.70;;;;;;6215435;28;20037;-69
2022/04/01 15:57:02;;;;;;;5.40;1.70;;;20.10;35.80;;;;;;6219751;28;20038;-69
2022/04/01 16:00:04;;;;;;;4.05;1.50;;;20.10;35.90;;;;;;6219947;28;20029;-68
2022/04/01 16:03:12;;;;;;;3.90;1.42;;;20.10;36.30;;;;;;6206859;28;20496;-68
2022/04/01 16:06:16;;;;;;;6.90;1.73;;;20.10;36.60;;;;;;6195483;28;20401;-68
2022/04/01 16:09:19;;;;;;;3.17;1.30;;;20.10;37.00;;;;;;6188883;28;20038;-68
2022/04/01 16:12:24;;;;;;;5.13;1.83;;;20.10;37.30;;;;;;6207081;28;20434;-68
2022/04/01 16:15:25;;;;;;;3.45;1.25;;;20.10;37.30;;;;;;6213584;28;20101;-69